sensor_id;sensor_type;location;lat;lon;timestamp;P1;durP1;ratioP1;P2;durP2;ratioP2
11384;SDS011;5747;56.748;13.882;2023-12-20T00:01:24;13.40;;;1.97;;
11384;SDS011;5747;56.748;13.882;2023-12-20T00:03:52;15.00;;;2.30;;
11384;SDS011;5747;56.748;13.882;2023-12-20T00:06:21;14.30;;;2.27;;
11384;SDS011;5747;56.748;13.882;2023-12-20T00:08:50;17.80;;;2.20;;
11384;SDS011;5747;56.748;13.882;2023-12-20T00:11:18;13.30;;;2.60;;
11384;SDS011;5747;56.748;13.882;2023-12-20T00:13:46;11.53;;;2.03;;
11384;SDS011;5747;56.748;13.882;2023-12-20T00:16:17;8.67;;;1.93;;
11384;SDS011;5747;56.748;13.882;2023-12-20T00:18:45;10.90;;;2.30;;
11384;SDS011;5747;56.748;13.882;2023-12-20T00:21:14;11.90;;;2.20;;
11384;SDS011;5747;56.748;13.882;2023-12-20T00:23:43;12.67;;;2.73;;
11384;SDS011;5747;56.748;13.882;2023-12-20T00:26:11;8.33;;;2.33;;
11384;SDS011;5747;56.748;13.882;2023-12-20T00:28:40;12.73;;;2.07;;
11384;SDS011;5747;56.748;13.882;2023-12-20T00:31:09;13.97;;;2.40;;
11384;SDS011;5747;56.748;13.882;2023-12-20T00:33:37;15.40;;;2.40;;
11384;SDS011;5747;56.748;13.882;2023-12-20T00:36:10;8.73;;;2.10;;
11384;SDS011;5747;56.748;13.882;2023-12-20T00:38:38;15.97;;;2.30;;
11384;SDS011;5747;56.748;13.882;2023-12-20T00:41:08;9.83;;;2.33;;
11384;SDS011;5747;56.748;13.882;2023-12-20T00:43:36;14.83;;;2.10;;
11384;SDS011;5747;56.748;13.882;2023-12-20T00:46:04;11.60;;;2.37;;
11384;SDS011;5747;56.748;13.882;2023-12-20T00:48:32;15.07;;;2.60;;
11384;SDS011;5747;56.748;13.882;2023-12-20T00:51:00;20.27;;;2.60;;
11384;SDS011;5747;56.748;13.882;2023-12-20T00:53:28;9.57;;;1.80;;
11384;SDS011;5747;56.748;13.882;2023-12-20T00:55:56;12.00;;;2.77;;
11384;SDS011;5747;56.748;13.882;2023-12-20T00:58:27;10.23;;;1.93;;
11384;SDS011;5747;56.748;13.882;2023-12-20T01:00:55;12.67;;;2.30;;
11384;SDS011;5747;56.748;13.882;2023-12-20T01:03:24;9.50;;;2.10;;
11384;SDS011;5747;56.748;13.882;2023-12-20T01:05:52;18.23;;;2.87;;
11384;SDS011;5747;56.748;13.882;2023-12-20T01:08:21;12.37;;;2.17;;
11384;SDS011;5747;56.748;13.882;2023-12-20T01:10:49;11.37;;;2.13;;
11384;SDS011;5747;56.748;13.882;2023-12-20T01:13:17;13.40;;;2.00;;
11384;SDS011;5747;56.748;13.882;2023-12-20T01:15:47;8.70;;;2.17;;
11384;SDS011;5747;56.748;13.882;2023-12-20T01:18:15;13.07;;;2.07;;
11384;SDS011;5747;56.748;13.882;2023-12-20T01:20:43;13.63;;;2.60;;
11384;SDS011;5747;56.748;13.882;2023-12-20T01:23:11;12.77;;;2.40;;
11384;SDS011;5747;56.748;13.882;2023-12-20T01:25:39;12.47;;;2.20;;
11384;SDS011;5747;56.748;13.882;2023-12-20T01:28:07;16.93;;;3.17;;
11384;SDS011;5747;56.748;13.882;2023-12-20T01:30:36;14.73;;;2.77;;
11384;SDS011;5747;56.748;13.882;2023-12-20T01:33:05;13.70;;;2.80;;
11384;SDS011;5747;56.748;13.882;2023-12-20T01:35:33;9.97;;;2.40;;
11384;SDS011;5747;56.748;13.882;2023-12-20T01:38:02;11.10;;;2.70;;
11384;SDS011;5747;56.748;13.882;2023-12-20T01:40:30;15.10;;;2.83;;
11384;SDS011;5747;56.748;13.882;2023-12-20T01:42:58;13.20;;;2.17;;
11384;SDS011;5747;56.748;13.882;2023-12-20T01:45:28;15.00;;;2.40;;
11384;SDS011;5747;56.748;13.882;2023-12-20T01:47:57;11.00;;;2.17;;
11384;SDS011;5747;56.748;13.882;2023-12-20T01:50:28;14.00;;;2.20;;
11384;SDS011;5747;56.748;13.882;2023-12-20T01:52:56;10.27;;;2.67;;
11384;SDS011;5747;56.748;13.882;2023-12-20T01:55:27;9.53;;;1.83;;
11384;SDS011;5747;56.748;13.882;2023-12-20T01:57:59;10.63;;;2.00;;
11384;SDS011;5747;56.748;13.882;2023-12-20T02:00:27;12.20;;;1.83;;
11384;SDS011;5747;56.748;13.882;2023-12-20T02:02:56;10.63;;;1.87;;
11384;SDS011;5747;56.748;13.882;2023-12-20T02:05:30;9.60;;;2.00;;
11384;SDS011;5747;56.748;13.882;2023-12-20T02:07:58;8.20;;;1.87;;
11384;SDS011;5747;56.748;13.882;2023-12-20T02:10:28;6.70;;;1.67;;
11384;SDS011;5747;56.748;13.882;2023-12-20T02:12:56;6.80;;;1.70;;
11384;SDS011;5747;56.748;13.882;2023-12-20T02:15:25;8.43;;;2.00;;
11384;SDS011;5747;56.748;13.882;2023-12-20T02:17:53;7.13;;;1.47;;
11384;SDS011;5747;56.748;13.882;2023-12-20T02:20:21;9.83;;;2.00;;
11384;SDS011;5747;56.748;13.882;2023-12-20T02:22:51;10.70;;;2.60;;
11384;SDS011;5747;56.748;13.882;2023-12-20T02:25:19;8.40;;;1.60;;
11384;SDS011;5747;56.748;13.882;2023-12-20T02:27:48;8.43;;;1.70;;
11384;SDS011;5747;56.748;13.882;2023-12-20T02:30:17;8.87;;;1.90;;
11384;SDS011;5747;56.748;13.882;2023-12-20T02:32:45;8.03;;;1.50;;
11384;SDS011;5747;56.748;13.882;2023-12-20T02:35:14;7.03;;;1.63;;
11384;SDS011;5747;56.748;13.882;2023-12-20T02:37:42;6.30;;;1.90;;
11384;SDS011;5747;56.748;13.882;2023-12-20T02:40:12;7.13;;;1.80;;
11384;SDS011;5747;56.748;13.882;2023-12-20T02:42:40;10.90;;;2.10;;
11384;SDS011;5747;56.748;13.882;2023-12-20T02:45:08;11.23;;;2.13;;
11384;SDS011;5747;56.748;13.882;2023-12-20T02:47:36;8.87;;;2.27;;
11384;SDS011;5747;56.748;13.882;2023-12-20T02:50:05;11.73;;;2.23;;
11384;SDS011;5747;56.748;13.882;2023-12-20T02:52:34;11.70;;;2.07;;
11384;SDS011;5747;56.748;13.882;2023-12-20T02:55:02;11.43;;;1.97;;
11384;SDS011;5747;56.748;13.882;2023-12-20T02:57:32;13.57;;;2.50;;
11384;SDS011;5747;56.748;13.882;2023-12-20T03:00:03;16.10;;;2.40;;
11384;SDS011;5747;56.748;13.882;2023-12-20T03:02:31;10.13;;;1.83;;
11384;SDS011;5747;56.748;13.882;2023-12-20T03:04:59;15.33;;;3.07;;
11384;SDS011;5747;56.748;13.882;2023-12-20T03:07:28;10.93;;;2.00;;
11384;SDS011;5747;56.748;13.882;2023-12-20T03:09:56;11.00;;;2.07;;
11384;SDS011;5747;56.748;13.882;2023-12-20T03:12:46;10.70;;;2.30;;
11384;SDS011;5747;56.748;13.882;2023-12-20T03:15:14;13.40;;;2.10;;
11384;SDS011;5747;56.748;13.882;2023-12-20T03:17:42;11.87;;;2.90;;
11384;SDS011;5747;56.748;13.882;2023-12-20T03:20:11;8.40;;;2.40;;
11384;SDS011;5747;56.748;13.882;2023-12-20T03:22:39;10.93;;;2.40;;
11384;SDS011;5747;56.748;13.882;2023-12-20T03:25:08;14.73;;;2.50;;
11384;SDS011;5747;56.748;13.882;2023-12-20T03:27:36;14.80;;;2.40;;
11384;SDS011;5747;56.748;13.882;2023-12-20T03:30:07;13.00;;;2.70;;
11384;SDS011;5747;56.748;13.882;2023-12-20T03:32:36;10.70;;;1.90;;
11384;SDS011;5747;56.748;13.882;2023-12-20T03:35:06;7.43;;;1.70;;
11384;SDS011;5747;56.748;13.882;2023-12-20T03:37:34;11.50;;;2.10;;
11384;SDS011;5747;56.748;13.882;2023-12-20T03:40:02;12.67;;;2.23;;
11384;SDS011;5747;56.748;13.882;2023-12-20T03:42:31;12.97;;;2.73;;
11384;SDS011;5747;56.748;13.882;2023-12-20T03:44:59;17.20;;;2.63;;
11384;SDS011;5747;56.748;13.882;2023-12-20T03:47:29;15.80;;;2.27;;
11384;SDS011;5747;56.748;13.882;2023-12-20T03:49:57;10.80;;;2.27;;
11384;SDS011;5747;56.748;13.882;2023-12-20T03:52:25;8.73;;;1.90;;
11384;SDS011;5747;56.748;13.882;2023-12-20T03:54:54;11.20;;;2.90;;
11384;SDS011;5747;56.748;13.882;2023-12-20T03:57:22;9.50;;;2.10;;
11384;SDS011;5747;56.748;13.882;2023-12-20T03:59:50;15.83;;;2.50;;
11384;SDS011;5747;56.748;13.882;2023-12-20T04:02:18;12.80;;;2.40;;
11384;SDS011;5747;56.748;13.882;2023-12-20T04:04:48;11.60;;;2.30;;
11384;SDS011;5747;56.748;13.882;2023-12-20T04:07:16;13.13;;;2.30;;
11384;SDS011;5747;56.748;13.882;2023-12-20T04:09:44;11.00;;;1.77;;
11384;SDS011;5747;56.748;13.882;2023-12-20T04:12:13;13.90;;;2.10;;
11384;SDS011;5747;56.748;13.882;2023-12-20T04:14:41;11.97;;;1.90;;
11384;SDS011;5747;56.748;13.882;2023-12-20T04:17:09;14.60;;;2.10;;
11384;SDS011;5747;56.748;13.882;2023-12-20T04:19:37;8.53;;;2.60;;
11384;SDS011;5747;56.748;13.882;2023-12-20T04:22:07;9.90;;;2.20;;
11384;SDS011;5747;56.748;13.882;2023-12-20T04:24:35;10.73;;;1.70;;
11384;SDS011;5747;56.748;13.882;2023-12-20T04:27:04;9.33;;;2.27;;
11384;SDS011;5747;56.748;13.882;2023-12-20T04:29:33;9.00;;;1.80;;
11384;SDS011;5747;56.748;13.882;2023-12-20T04:32:01;10.57;;;2.20;;
11384;SDS011;5747;56.748;13.882;2023-12-20T04:34:29;9.90;;;2.07;;
11384;SDS011;5747;56.748;13.882;2023-12-20T04:36:57;10.30;;;2.30;;
11384;SDS011;5747;56.748;13.882;2023-12-20T04:39:27;13.90;;;2.13;;
11384;SDS011;5747;56.748;13.882;2023-12-20T04:41:55;7.03;;;1.70;;
11384;SDS011;5747;56.748;13.882;2023-12-20T04:44:23;11.50;;;2.00;;
11384;SDS011;5747;56.748;13.882;2023-12-20T04:46:51;9.87;;;2.20;;
11384;SDS011;5747;56.748;13.882;2023-12-20T04:49:20;6.10;;;1.60;;
11384;SDS011;5747;56.748;13.882;2023-12-20T04:51:48;16.67;;;2.47;;
11384;SDS011;5747;56.748;13.882;2023-12-20T04:54:16;13.57;;;2.40;;
11384;SDS011;5747;56.748;13.882;2023-12-20T04:56:46;11.20;;;1.80;;
11384;SDS011;5747;56.748;13.882;2023-12-20T04:59:14;7.23;;;1.77;;
11384;SDS011;5747;56.748;13.882;2023-12-20T05:01:42;7.27;;;1.67;;
11384;SDS011;5747;56.748;13.882;2023-12-20T05:04:10;12.67;;;2.43;;
11384;SDS011;5747;56.748;13.882;2023-12-20T05:06:39;9.30;;;1.70;;
11384;SDS011;5747;56.748;13.882;2023-12-20T05:09:07;10.77;;;1.90;;
11384;SDS011;5747;56.748;13.882;2023-12-20T05:11:36;8.00;;;1.80;;
11384;SDS011;5747;56.748;13.882;2023-12-20T05:14:06;13.17;;;1.97;;
11384;SDS011;5747;56.748;13.882;2023-12-20T05:16:34;6.90;;;1.57;;
11384;SDS011;5747;56.748;13.882;2023-12-20T05:19:02;11.37;;;2.10;;
11384;SDS011;5747;56.748;13.882;2023-12-20T05:21:33;4.63;;;1.40;;
11384;SDS011;5747;56.748;13.882;2023-12-20T05:24:02;7.20;;;1.73;;
11384;SDS011;5747;56.748;13.882;2023-12-20T05:26:31;7.70;;;2.10;;
11384;SDS011;5747;56.748;13.882;2023-12-20T05:28:59;8.10;;;1.70;;
11384;SDS011;5747;56.748;13.882;2023-12-20T05:31:29;6.47;;;1.23;;
11384;SDS011;5747;56.748;13.882;2023-12-20T05:33:58;3.83;;;1.30;;
11384;SDS011;5747;56.748;13.882;2023-12-20T05:36:27;5.43;;;1.40;;
11384;SDS011;5747;56.748;13.882;2023-12-20T05:38:55;5.07;;;1.27;;
11384;SDS011;5747;56.748;13.882;2023-12-20T05:41:23;5.30;;;1.20;;
11384;SDS011;5747;56.748;13.882;2023-12-20T05:43:51;6.87;;;1.57;;
11384;SDS011;5747;56.748;13.882;2023-12-20T05:46:19;7.43;;;1.40;;
11384;SDS011;5747;56.748;13.882;2023-12-20T05:48:49;7.00;;;1.30;;
11384;SDS011;5747;56.748;13.882;2023-12-20T05:51:18;6.77;;;1.30;;
11384;SDS011;5747;56.748;13.882;2023-12-20T05:53:46;5.90;;;1.47;;
11384;SDS011;5747;56.748;13.882;2023-12-20T05:56:16;11.77;;;1.73;;
11384;SDS011;5747;56.748;13.882;2023-12-20T05:58:44;6.23;;;1.50;;
11384;SDS011;5747;56.748;13.882;2023-12-20T06:01:13;5.73;;;1.60;;
11384;SDS011;5747;56.748;13.882;2023-12-20T06:03:43;8.50;;;1.60;;
11384;SDS011;5747;56.748;13.882;2023-12-20T06:06:13;9.67;;;1.77;;
11384;SDS011;5747;56.748;13.882;2023-12-20T06:08:42;4.37;;;1.60;;
11384;SDS011;5747;56.748;13.882;2023-12-20T06:11:11;9.20;;;1.60;;
11384;SDS011;5747;56.748;13.882;2023-12-20T06:13:40;7.17;;;1.20;;
11384;SDS011;5747;56.748;13.882;2023-12-20T06:16:08;9.23;;;1.53;;
11384;SDS011;5747;56.748;13.882;2023-12-20T06:18:36;5.57;;;1.30;;
11384;SDS011;5747;56.748;13.882;2023-12-20T06:21:04;9.67;;;1.27;;
11384;SDS011;5747;56.748;13.882;2023-12-20T06:23:35;3.20;;;1.17;;
11384;SDS011;5747;56.748;13.882;2023-12-20T06:26:04;4.83;;;1.13;;
11384;SDS011;5747;56.748;13.882;2023-12-20T06:28:32;5.33;;;1.07;;
11384;SDS011;5747;56.748;13.882;2023-12-20T06:31:00;1.73;;;0.70;;
11384;SDS011;5747;56.748;13.882;2023-12-20T06:33:29;3.60;;;0.90;;
11384;SDS011;5747;56.748;13.882;2023-12-20T06:35:58;4.60;;;1.00;;
11384;SDS011;5747;56.748;13.882;2023-12-20T06:38:26;2.57;;;0.80;;
11384;SDS011;5747;56.748;13.882;2023-12-20T06:40:55;2.47;;;0.70;;
11384;SDS011;5747;56.748;13.882;2023-12-20T06:43:25;2.97;;;0.70;;
11384;SDS011;5747;56.748;13.882;2023-12-20T06:46:12;1.83;;;0.97;;
11384;SDS011;5747;56.748;13.882;2023-12-20T06:48:40;3.67;;;0.90;;
11384;SDS011;5747;56.748;13.882;2023-12-20T06:51:10;2.13;;;0.60;;
11384;SDS011;5747;56.748;13.882;2023-12-20T06:53:40;2.57;;;0.80;;
11384;SDS011;5747;56.748;13.882;2023-12-20T06:56:10;3.57;;;0.80;;
11384;SDS011;5747;56.748;13.882;2023-12-20T06:58:44;3.13;;;0.67;;
11384;SDS011;5747;56.748;13.882;2023-12-20T07:01:12;2.93;;;0.70;;
11384;SDS011;5747;56.748;13.882;2023-12-20T07:03:40;6.13;;;0.90;;
11384;SDS011;5747;56.748;13.882;2023-12-20T07:06:09;3.47;;;0.93;;
11384;SDS011;5747;56.748;13.882;2023-12-20T07:08:37;2.63;;;0.90;;
11384;SDS011;5747;56.748;13.882;2023-12-20T07:11:05;1.87;;;0.70;;
11384;SDS011;5747;56.748;13.882;2023-12-20T07:13:34;3.70;;;0.90;;
11384;SDS011;5747;56.748;13.882;2023-12-20T07:16:03;2.70;;;1.00;;
11384;SDS011;5747;56.748;13.882;2023-12-20T07:18:31;3.00;;;0.93;;
11384;SDS011;5747;56.748;13.882;2023-12-20T07:20:59;2.30;;;0.70;;
11384;SDS011;5747;56.748;13.882;2023-12-20T07:23:28;3.10;;;0.80;;
11384;SDS011;5747;56.748;13.882;2023-12-20T07:25:56;4.57;;;0.80;;
11384;SDS011;5747;56.748;13.882;2023-12-20T07:28:24;2.93;;;0.67;;
11384;SDS011;5747;56.748;13.882;2023-12-20T07:30:53;1.33;;;0.60;;
11384;SDS011;5747;56.748;13.882;2023-12-20T07:33:22;2.10;;;0.60;;
11384;SDS011;5747;56.748;13.882;2023-12-20T07:35:50;1.27;;;0.53;;
11384;SDS011;5747;56.748;13.882;2023-12-20T07:38:19;1.63;;;0.40;;
11384;SDS011;5747;56.748;13.882;2023-12-20T07:40:47;0.57;;;0.27;;
11384;SDS011;5747;56.748;13.882;2023-12-20T07:43:15;2.57;;;0.40;;
11384;SDS011;5747;56.748;13.882;2023-12-20T07:45:43;0.73;;;0.23;;
11384;SDS011;5747;56.748;13.882;2023-12-20T07:48:13;1.63;;;0.40;;
11384;SDS011;5747;56.748;13.882;2023-12-20T07:50:41;1.23;;;0.30;;
11384;SDS011;5747;56.748;13.882;2023-12-20T07:53:09;0.73;;;0.47;;
11384;SDS011;5747;56.748;13.882;2023-12-20T07:55:38;1.70;;;0.50;;
11384;SDS011;5747;56.748;13.882;2023-12-20T07:58:07;1.70;;;0.30;;
11384;SDS011;5747;56.748;13.882;2023-12-20T08:00:35;0.57;;;0.30;;
11384;SDS011;5747;56.748;13.882;2023-12-20T08:03:03;4.03;;;0.50;;
11384;SDS011;5747;56.748;13.882;2023-12-20T08:05:33;0.90;;;0.80;;
11384;SDS011;5747;56.748;13.882;2023-12-20T08:08:01;1.60;;;0.60;;
11384;SDS011;5747;56.748;13.882;2023-12-20T08:10:29;2.53;;;0.60;;
11384;SDS011;5747;56.748;13.882;2023-12-20T08:12:57;0.50;;;0.40;;
11384;SDS011;5747;56.748;13.882;2023-12-20T08:15:25;1.80;;;0.67;;
11384;SDS011;5747;56.748;13.882;2023-12-20T08:17:53;1.30;;;0.53;;
11384;SDS011;5747;56.748;13.882;2023-12-20T08:20:22;2.70;;;0.57;;
11384;SDS011;5747;56.748;13.882;2023-12-20T08:23:06;3.00;;;0.67;;
11384;SDS011;5747;56.748;13.882;2023-12-20T08:25:34;1.33;;;0.60;;
11384;SDS011;5747;56.748;13.882;2023-12-20T08:28:03;3.60;;;0.63;;
11384;SDS011;5747;56.748;13.882;2023-12-20T08:30:31;4.17;;;0.73;;
11384;SDS011;5747;56.748;13.882;2023-12-20T08:33:00;1.83;;;0.53;;
11384;SDS011;5747;56.748;13.882;2023-12-20T08:35:29;2.40;;;0.50;;
11384;SDS011;5747;56.748;13.882;2023-12-20T08:37:57;3.40;;;0.73;;
11384;SDS011;5747;56.748;13.882;2023-12-20T08:40:28;3.20;;;0.90;;
11384;SDS011;5747;56.748;13.882;2023-12-20T08:42:56;2.20;;;0.97;;
11384;SDS011;5747;56.748;13.882;2023-12-20T08:45:24;1.70;;;0.60;;
11384;SDS011;5747;56.748;13.882;2023-12-20T08:47:52;3.07;;;0.67;;
11384;SDS011;5747;56.748;13.882;2023-12-20T08:50:24;2.10;;;0.90;;
11384;SDS011;5747;56.748;13.882;2023-12-20T08:52:52;1.30;;;0.63;;
11384;SDS011;5747;56.748;13.882;2023-12-20T08:55:21;2.97;;;0.60;;
11384;SDS011;5747;56.748;13.882;2023-12-20T08:57:50;2.13;;;0.50;;
11384;SDS011;5747;56.748;13.882;2023-12-20T09:00:19;3.97;;;0.80;;
11384;SDS011;5747;56.748;13.882;2023-12-20T09:02:50;2.27;;;0.50;;
11384;SDS011;5747;56.748;13.882;2023-12-20T09:05:18;1.67;;;0.60;;
11384;SDS011;5747;56.748;13.882;2023-12-20T09:07:47;4.87;;;0.70;;
11384;SDS011;5747;56.748;13.882;2023-12-20T09:10:15;4.00;;;0.60;;
11384;SDS011;5747;56.748;13.882;2023-12-20T09:12:50;1.47;;;0.50;;
11384;SDS011;5747;56.748;13.882;2023-12-20T09:15:22;1.20;;;0.50;;
11384;SDS011;5747;56.748;13.882;2023-12-20T09:17:51;1.00;;;0.57;;
11384;SDS011;5747;56.748;13.882;2023-12-20T09:20:19;0.30;;;0.30;;
11384;SDS011;5747;56.748;13.882;2023-12-20T09:22:50;0.63;;;0.40;;
11384;SDS011;5747;56.748;13.882;2023-12-20T09:25:18;1.50;;;0.37;;
11384;SDS011;5747;56.748;13.882;2023-12-20T09:27:46;0.40;;;0.30;;
11384;SDS011;5747;56.748;13.882;2023-12-20T09:30:16;1.23;;;0.33;;
11384;SDS011;5747;56.748;13.882;2023-12-20T09:32:53;1.37;;;0.40;;
11384;SDS011;5747;56.748;13.882;2023-12-20T09:35:21;0.93;;;0.33;;
11384;SDS011;5747;56.748;13.882;2023-12-20T09:37:50;0.93;;;0.53;;
11384;SDS011;5747;56.748;13.882;2023-12-20T09:40:18;0.60;;;0.20;;
11384;SDS011;5747;56.748;13.882;2023-12-20T09:42:48;2.40;;;0.50;;
11384;SDS011;5747;56.748;13.882;2023-12-20T09:45:22;2.23;;;0.43;;
11384;SDS011;5747;56.748;13.882;2023-12-20T09:47:50;2.17;;;0.60;;
11384;SDS011;5747;56.748;13.882;2023-12-20T09:50:21;2.60;;;0.50;;
11384;SDS011;5747;56.748;13.882;2023-12-20T09:52:50;2.70;;;0.70;;
11384;SDS011;5747;56.748;13.882;2023-12-20T09:55:19;2.30;;;0.90;;
11384;SDS011;5747;56.748;13.882;2023-12-20T09:57:49;3.90;;;0.70;;
11384;SDS011;5747;56.748;13.882;2023-12-20T10:00:17;3.93;;;1.20;;
11384;SDS011;5747;56.748;13.882;2023-12-20T10:02:48;5.10;;;1.57;;
11384;SDS011;5747;56.748;13.882;2023-12-20T10:05:27;5.10;;;1.30;;
11384;SDS011;5747;56.748;13.882;2023-12-20T10:07:56;6.63;;;1.20;;
11384;SDS011;5747;56.748;13.882;2023-12-20T10:10:25;4.90;;;1.33;;
11384;SDS011;5747;56.748;13.882;2023-12-20T10:13:10;6.80;;;1.60;;
11384;SDS011;5747;56.748;13.882;2023-12-20T10:15:40;7.13;;;1.50;;
11384;SDS011;5747;56.748;13.882;2023-12-20T10:18:12;8.17;;;1.67;;
11384;SDS011;5747;56.748;13.882;2023-12-20T10:20:40;7.63;;;1.77;;
11384;SDS011;5747;56.748;13.882;2023-12-20T10:23:10;4.33;;;1.50;;
11384;SDS011;5747;56.748;13.882;2023-12-20T10:25:39;3.07;;;1.20;;
11384;SDS011;5747;56.748;13.882;2023-12-20T10:28:08;2.87;;;0.90;;
11384;SDS011;5747;56.748;13.882;2023-12-20T10:30:38;5.57;;;1.37;;
11384;SDS011;5747;56.748;13.882;2023-12-20T10:33:07;3.80;;;1.00;;
11384;SDS011;5747;56.748;13.882;2023-12-20T10:35:37;6.63;;;1.00;;
11384;SDS011;5747;56.748;13.882;2023-12-20T10:38:11;6.17;;;1.00;;
11384;SDS011;5747;56.748;13.882;2023-12-20T10:40:42;5.57;;;1.30;;
11384;SDS011;5747;56.748;13.882;2023-12-20T10:43:12;4.50;;;1.00;;
11384;SDS011;5747;56.748;13.882;2023-12-20T10:45:41;3.27;;;1.07;;
11384;SDS011;5747;56.748;13.882;2023-12-20T10:48:10;7.90;;;1.57;;
11384;SDS011;5747;56.748;13.882;2023-12-20T10:50:40;8.83;;;1.10;;
11384;SDS011;5747;56.748;13.882;2023-12-20T10:53:09;6.73;;;1.50;;
11384;SDS011;5747;56.748;13.882;2023-12-20T10:55:38;9.83;;;1.80;;
11384;SDS011;5747;56.748;13.882;2023-12-20T10:58:07;7.23;;;1.60;;
11384;SDS011;5747;56.748;13.882;2023-12-20T11:00:38;11.50;;;1.80;;
11384;SDS011;5747;56.748;13.882;2023-12-20T11:03:08;5.53;;;1.30;;
11384;SDS011;5747;56.748;13.882;2023-12-20T11:05:38;5.67;;;1.60;;
11384;SDS011;5747;56.748;13.882;2023-12-20T11:08:17;10.40;;;1.60;;
11384;SDS011;5747;56.748;13.882;2023-12-20T11:10:51;7.60;;;1.37;;
11384;SDS011;5747;56.748;13.882;2023-12-20T11:13:26;8.13;;;1.53;;
11384;SDS011;5747;56.748;13.882;2023-12-20T11:15:58;9.10;;;1.63;;
11384;SDS011;5747;56.748;13.882;2023-12-20T11:18:30;9.53;;;1.50;;
11384;SDS011;5747;56.748;13.882;2023-12-20T11:21:01;4.10;;;1.63;;
11384;SDS011;5747;56.748;13.882;2023-12-20T11:23:31;5.90;;;1.40;;
11384;SDS011;5747;56.748;13.882;2023-12-20T11:26:01;7.20;;;1.50;;
11384;SDS011;5747;56.748;13.882;2023-12-20T11:28:30;7.27;;;1.40;;
11384;SDS011;5747;56.748;13.882;2023-12-20T11:31:00;5.87;;;1.30;;
11384;SDS011;5747;56.748;13.882;2023-12-20T11:33:32;8.87;;;1.80;;
11384;SDS011;5747;56.748;13.882;2023-12-20T11:36:14;7.07;;;1.70;;
11384;SDS011;5747;56.748;13.882;2023-12-20T11:38:53;7.00;;;1.57;;
11384;SDS011;5747;56.748;13.882;2023-12-20T11:41:24;6.17;;;1.20;;
11384;SDS011;5747;56.748;13.882;2023-12-20T11:43:53;4.67;;;1.40;;
11384;SDS011;5747;56.748;13.882;2023-12-20T11:46:21;10.90;;;1.70;;
11384;SDS011;5747;56.748;13.882;2023-12-20T11:48:50;7.07;;;1.43;;
11384;SDS011;5747;56.748;13.882;2023-12-20T11:51:20;8.53;;;1.47;;
11384;SDS011;5747;56.748;13.882;2023-12-20T11:53:51;12.97;;;2.23;;
11384;SDS011;5747;56.748;13.882;2023-12-20T11:56:19;4.97;;;1.70;;
11384;SDS011;5747;56.748;13.882;2023-12-20T11:58:48;9.43;;;1.90;;
11384;SDS011;5747;56.748;13.882;2023-12-20T12:01:17;6.80;;;1.37;;
11384;SDS011;5747;56.748;13.882;2023-12-20T12:03:48;9.07;;;2.10;;
11384;SDS011;5747;56.748;13.882;2023-12-20T12:06:16;5.07;;;1.50;;
11384;SDS011;5747;56.748;13.882;2023-12-20T12:08:46;7.47;;;1.60;;
11384;SDS011;5747;56.748;13.882;2023-12-20T12:11:14;9.63;;;1.63;;
11384;SDS011;5747;56.748;13.882;2023-12-20T12:13:42;4.53;;;1.60;;
11384;SDS011;5747;56.748;13.882;2023-12-20T12:16:10;9.50;;;2.00;;
11384;SDS011;5747;56.748;13.882;2023-12-20T12:18:39;6.80;;;1.80;;
11384;SDS011;5747;56.748;13.882;2023-12-20T12:21:08;9.23;;;1.63;;
11384;SDS011;5747;56.748;13.882;2023-12-20T12:23:45;11.73;;;2.27;;
11384;SDS011;5747;56.748;13.882;2023-12-20T12:26:13;6.60;;;2.10;;
11384;SDS011;5747;56.748;13.882;2023-12-20T12:28:42;4.70;;;1.70;;
11384;SDS011;5747;56.748;13.882;2023-12-20T12:31:13;11.20;;;1.77;;
11384;SDS011;5747;56.748;13.882;2023-12-20T12:33:42;7.37;;;1.80;;
11384;SDS011;5747;56.748;13.882;2023-12-20T12:36:12;5.97;;;1.50;;
11384;SDS011;5747;56.748;13.882;2023-12-20T12:38:42;3.50;;;1.40;;
11384;SDS011;5747;56.748;13.882;2023-12-20T12:41:13;8.93;;;1.40;;
11384;SDS011;5747;56.748;13.882;2023-12-20T12:43:42;3.60;;;1.10;;
11384;SDS011;5747;56.748;13.882;2023-12-20T12:46:10;6.93;;;1.40;;
11384;SDS011;5747;56.748;13.882;2023-12-20T12:48:39;2.97;;;1.20;;
11384;SDS011;5747;56.748;13.882;2023-12-20T12:51:12;4.70;;;1.40;;
11384;SDS011;5747;56.748;13.882;2023-12-20T12:53:40;3.80;;;1.40;;
11384;SDS011;5747;56.748;13.882;2023-12-20T12:56:08;1.53;;;1.20;;
11384;SDS011;5747;56.748;13.882;2023-12-20T12:58:38;4.50;;;1.57;;
11384;SDS011;5747;56.748;13.882;2023-12-20T13:01:06;3.10;;;1.60;;
11384;SDS011;5747;56.748;13.882;2023-12-20T13:03:35;8.73;;;1.70;;
11384;SDS011;5747;56.748;13.882;2023-12-20T13:06:03;5.07;;;1.87;;
11384;SDS011;5747;56.748;13.882;2023-12-20T13:08:32;6.07;;;2.00;;
11384;SDS011;5747;56.748;13.882;2023-12-20T13:11:00;5.77;;;2.00;;
11384;SDS011;5747;56.748;13.882;2023-12-20T13:13:30;5.23;;;1.80;;
11384;SDS011;5747;56.748;13.882;2023-12-20T13:16:00;7.80;;;2.10;;
11384;SDS011;5747;56.748;13.882;2023-12-20T13:18:28;7.50;;;2.10;;
11384;SDS011;5747;56.748;13.882;2023-12-20T13:20:56;4.53;;;2.10;;
11384;SDS011;5747;56.748;13.882;2023-12-20T13:23:24;8.27;;;1.90;;
11384;SDS011;5747;56.748;13.882;2023-12-20T13:25:53;4.90;;;1.90;;
11384;SDS011;5747;56.748;13.882;2023-12-20T13:28:21;6.53;;;2.03;;
11384;SDS011;5747;56.748;13.882;2023-12-20T13:30:49;8.53;;;2.03;;
11384;SDS011;5747;56.748;13.882;2023-12-20T13:33:19;5.23;;;1.63;;
11384;SDS011;5747;56.748;13.882;2023-12-20T13:35:48;6.23;;;2.00;;
11384;SDS011;5747;56.748;13.882;2023-12-20T13:38:16;5.83;;;1.90;;
11384;SDS011;5747;56.748;13.882;2023-12-20T13:40:44;6.27;;;1.80;;
11384;SDS011;5747;56.748;13.882;2023-12-20T13:43:13;6.93;;;2.43;;
11384;SDS011;5747;56.748;13.882;2023-12-20T13:45:43;7.27;;;2.10;;
11384;SDS011;5747;56.748;13.882;2023-12-20T13:48:11;4.93;;;2.70;;
11384;SDS011;5747;56.748;13.882;2023-12-20T13:50:41;5.67;;;2.10;;
11384;SDS011;5747;56.748;13.882;2023-12-20T13:53:09;4.40;;;2.37;;
11384;SDS011;5747;56.748;13.882;2023-12-20T13:55:37;5.50;;;2.60;;
11384;SDS011;5747;56.748;13.882;2023-12-20T13:58:07;8.07;;;3.00;;
11384;SDS011;5747;56.748;13.882;2023-12-20T14:00:36;12.50;;;2.70;;
11384;SDS011;5747;56.748;13.882;2023-12-20T14:03:04;9.77;;;3.33;;
11384;SDS011;5747;56.748;13.882;2023-12-20T14:05:33;9.40;;;2.63;;
11384;SDS011;5747;56.748;13.882;2023-12-20T14:08:06;8.47;;;2.87;;
11384;SDS011;5747;56.748;13.882;2023-12-20T14:10:35;9.63;;;3.17;;
11384;SDS011;5747;56.748;13.882;2023-12-20T14:13:03;9.20;;;2.90;;
11384;SDS011;5747;56.748;13.882;2023-12-20T14:15:31;6.00;;;3.00;;
11384;SDS011;5747;56.748;13.882;2023-12-20T14:18:04;6.23;;;2.90;;
11384;SDS011;5747;56.748;13.882;2023-12-20T14:20:34;11.83;;;3.60;;
11384;SDS011;5747;56.748;13.882;2023-12-20T14:23:04;11.07;;;3.30;;
11384;SDS011;5747;56.748;13.882;2023-12-20T14:25:32;8.63;;;3.63;;
11384;SDS011;5747;56.748;13.882;2023-12-20T14:28:17;11.37;;;3.57;;
11384;SDS011;5747;56.748;13.882;2023-12-20T14:30:45;12.37;;;4.53;;
11384;SDS011;5747;56.748;13.882;2023-12-20T14:33:13;13.10;;;4.07;;
11384;SDS011;5747;56.748;13.882;2023-12-20T14:35:41;11.53;;;4.00;;
11384;SDS011;5747;56.748;13.882;2023-12-20T14:38:13;9.07;;;3.93;;
11384;SDS011;5747;56.748;13.882;2023-12-20T14:40:41;11.53;;;4.07;;
11384;SDS011;5747;56.748;13.882;2023-12-20T14:43:10;9.90;;;4.33;;
11384;SDS011;5747;56.748;13.882;2023-12-20T14:45:38;13.50;;;4.63;;
11384;SDS011;5747;56.748;13.882;2023-12-20T14:48:06;15.33;;;4.87;;
11384;SDS011;5747;56.748;13.882;2023-12-20T14:50:34;13.77;;;4.80;;
11384;SDS011;5747;56.748;13.882;2023-12-20T14:53:03;11.90;;;4.97;;
11384;SDS011;5747;56.748;13.882;2023-12-20T14:55:33;12.57;;;4.60;;